Time;durP1;ratioP1;P1;durP2;ratioP2;P2;SDS_P1;SDS_P2;PMS_P1;PMS_P2;Temp;Humidity;BMP_temperature;BMP_pressure;BME280_temperature;BME280_humidity;BME280_pressure;Samples;Min_cycle;Max_cycle;Signal;HPM_P1;HPM_P2
2022/03/16 00:01:47;;;;;;;7.28;5.25;;;17.90;49.60;;;;;;4970626;28;92476;-67
2022/03/16 00:04:12;;;;;;;6.72;4.93;;;17.80;49.50;;;;;;4968927;28;96894;-66
2022/03/16 00:06:38;;;;;;;7.15;4.85;;;17.80;49.60;;;;;;4968643;28;96633;-66
2022/03/16 00:09:04;;;;;;;6.82;5.15;;;17.80;49.50;;;;;;4968707;28;95113;-67
2022/03/16 00:11:29;;;;;;;6.43;5.07;;;17.80;49.50;;;;;;4970158;28;92574;-66
2022/03/16 00:13:55;;;;;;;7.00;5.10;;;17.80;49.50;;;;;;4969440;28;94889;-66
2022/03/16 00:16:20;;;;;;;6.43;5.25;;;17.80;49.50;;;;;;4969887;28;93517;-66
2022/03/16 00:18:46;;;;;;;6.68;5.03;;;17.80;49.50;;;;;;4968600;28;99540;-66
2022/03/16 00:21:11;;;;;;;6.55;5.10;;;17.80;49.40;;;;;;4968832;28;100443;-67
2022/03/16 00:23:37;;;;;;;8.05;5.30;;;17.80;49.40;;;;;;4970378;28;91761;-66
2022/03/16 00:26:03;;;;;;;7.15;5.63;;;17.80;49.40;;;;;;4970118;28;93114;-68
2022/03/16 00:28:30;;;;;;;8.75;4.97;;;17.80;49.50;;;;;;4969391;28;93972;-68
2022/03/16 00:30:55;;;;;;;7.95;5.63;;;17.80;49.40;;;;;;4968349;28;94934;-66
2022/03/16 00:33:21;;;;;;;6.47;5.40;;;17.80;49.40;;;;;;4970756;28;92476;-69
2022/03/16 00:35:47;;;;;;;6.28;5.50;;;17.80;49.40;;;;;;4969615;28;93110;-66
2022/03/16 00:38:14;;;;;;;6.97;5.50;;;17.80;49.40;;;;;;4969416;28;92876;-66
2022/03/16 00:40:40;;;;;;;6.30;5.43;;;17.80;49.40;;;;;;4969580;28;92759;-66
2022/03/16 00:43:06;;;;;;;5.78;5.13;;;17.70;49.30;;;;;;4969429;28;92944;-67
2022/03/16 00:45:31;;;;;;;6.80;5.18;;;17.80;49.40;;;;;;4969207;28;107066;-66
2022/03/16 00:47:57;;;;;;;7.93;6.03;;;17.70;49.30;;;;;;4971722;28;100251;-67
2022/03/16 00:50:22;;;;;;;6.65;5.32;;;17.70;49.30;;;;;;4973497;28;92836;-66
2022/03/16 00:52:48;;;;;;;8.07;5.32;;;17.70;49.30;;;;;;4972806;28;92567;-66
2022/03/16 00:55:14;;;;;;;7.28;5.80;;;17.70;49.30;;;;;;4971471;28;95543;-66
2022/03/16 00:57:39;;;;;;;8.60;5.78;;;17.70;49.20;;;;;;4972496;28;95133;-66
2022/03/16 01:00:06;;;;;;;6.80;5.72;;;17.70;49.20;;;;;;4973071;28;92599;-67
2022/03/16 01:02:32;;;;;;;7.50;6.10;;;17.70;49.20;;;;;;4972587;28;92867;-66
2022/03/16 01:04:59;;;;;;;7.00;5.80;;;17.70;49.20;;;;;;4972742;28;93837;-66
2022/03/16 01:07:25;;;;;;;7.75;5.50;;;17.70;49.20;;;;;;4971646;28;93813;-66
2022/03/16 01:09:52;;;;;;;6.97;5.28;;;17.70;49.10;;;;;;4972912;28;92547;-70
2022/03/16 01:12:20;;;;;;;6.22;5.45;;;17.70;49.20;;;;;;4973129;28;92100;-66
2022/03/16 01:14:46;;;;;;;7.32;5.88;;;17.70;49.20;;;;;;4972489;28;94732;-66
2022/03/16 01:17:11;;;;;;;7.13;5.93;;;17.60;49.10;;;;;;4975898;28;93336;-68
2022/03/16 01:19:37;;;;;;;6.80;6.10;;;17.60;49.00;;;;;;4970576;28;95595;-66
2022/03/16 01:22:04;;;;;;;7.13;5.78;;;17.60;49.10;;;;;;4972478;28;92690;-66
2022/03/16 01:24:29;;;;;;;7.00;5.63;;;17.60;49.10;;;;;;4971229;28;93750;-66
2022/03/16 01:26:56;;;;;;;6.57;5.57;;;17.60;49.00;;;;;;4972662;28;92930;-67
2022/03/16 01:29:24;;;;;;;7.72;5.65;;;17.60;49.00;;;;;;4971310;28;93023;-66
2022/03/16 01:31:52;;;;;;;8.15;6.03;;;17.60;49.00;;;;;;4972426;28;92532;-67
2022/03/16 01:34:17;;;;;;;8.00;5.88;;;17.60;49.00;;;;;;4971324;28;94779;-66
2022/03/16 01:36:43;;;;;;;7.57;5.88;;;17.60;48.90;;;;;;4970839;28;92227;-69
2022/03/16 01:39:09;;;;;;;6.88;6.03;;;17.60;49.00;;;;;;4970646;28;92895;-67
2022/03/16 01:41:35;;;;;;;7.80;6.10;;;17.60;48.90;;;;;;4972003;28;93037;-67
2022/03/16 01:44:01;;;;;;;7.43;6.05;;;17.60;48.90;;;;;;4971074;28;97365;-66
2022/03/16 01:46:27;;;;;;;6.95;6.10;;;17.50;48.80;;;;;;4953740;28;95703;-66
2022/03/16 01:48:53;;;;;;;9.00;6.22;;;17.50;48.80;;;;;;4972177;28;94193;-67
2022/03/16 01:51:19;;;;;;;7.38;6.00;;;17.50;48.90;;;;;;4971891;28;92526;-66
2022/03/16 01:53:46;;;;;;;8.15;6.18;;;17.50;48.80;;;;;;4972208;28;94118;-66
2022/03/16 01:56:14;;;;;;;7.45;6.15;;;17.50;48.80;;;;;;4972038;28;93734;-66
2022/03/16 01:58:39;;;;;;;7.00;5.85;;;17.50;48.80;;;;;;4971643;28;93759;-66
2022/03/16 02:01:06;;;;;;;8.02;6.35;;;17.50;48.80;;;;;;4971792;28;92443;-66
2022/03/16 02:03:31;;;;;;;6.47;5.82;;;17.50;48.80;;;;;;4971884;28;100764;-67
2022/03/16 02:05:57;;;;;;;7.80;6.15;;;17.50;48.80;;;;;;4970902;28;94040;-66
2022/03/16 02:08:23;;;;;;;7.47;6.38;;;17.50;48.80;;;;;;4970693;28;95348;-66
2022/03/16 02:10:48;;;;;;;7.95;6.35;;;17.50;48.80;;;;;;4971205;28;94592;-66
2022/03/16 02:13:14;;;;;;;8.65;6.68;;;17.50;48.80;;;;;;4971280;28;93381;-68
2022/03/16 02:15:40;;;;;;;8.23;6.90;;;17.50;48.70;;;;;;4971915;28;92980;-66
2022/03/16 02:18:06;;;;;;;8.82;7.00;;;17.50;48.80;;;;;;4971532;28;92506;-66
2022/03/16 02:20:32;;;;;;;8.73;6.25;;;17.40;48.70;;;;;;4971896;28;92612;-66
2022/03/16 02:23:05;;;;;;;7.53;6.43;;;17.50;48.80;;;;;;4971212;28;92993;-67
2022/03/16 02:25:31;;;;;;;7.65;6.25;;;17.40;48.60;;;;;;4954180;28;92919;-66
2022/03/16 02:27:58;;;;;;;9.02;6.38;;;17.40;48.70;;;;;;4970938;28;92774;-66
2022/03/16 02:30:25;;;;;;;7.40;6.38;;;17.40;48.70;;;;;;4970569;28;92470;-66
2022/03/16 02:32:52;;;;;;;8.13;6.88;;;17.40;48.60;;;;;;4969912;28;95736;-68
2022/03/16 02:35:18;;;;;;;9.30;6.80;;;17.40;48.60;;;;;;4970736;28;95101;-66
2022/03/16 02:37:44;;;;;;;8.82;6.63;;;17.40;48.50;;;;;;4970607;28;92928;-66
2022/03/16 02:40:15;;;;;;;8.45;5.90;;;17.40;48.60;;;;;;4970765;28;92870;-68
2022/03/16 02:42:41;;;;;;;8.80;6.53;;;17.40;48.50;;;;;;4970626;28;93228;-66
2022/03/16 02:45:07;;;;;;;7.53;6.38;;;17.40;48.60;;;;;;4970932;28;101584;-66
2022/03/16 02:47:34;;;;;;;8.52;6.88;;;17.40;48.50;;;;;;4970505;28;92558;-66
2022/03/16 02:50:00;;;;;;;8.60;6.85;;;17.40;48.50;;;;;;4971308;28;92286;-66
2022/03/16 02:52:26;;;;;;;7.78;6.38;;;17.40;48.50;;;;;;4970520;28;93570;-67
2022/03/16 02:54:52;;;;;;;8.05;6.78;;;17.40;48.50;;;;;;4969805;28;95128;-66
2022/03/16 02:57:18;;;;;;;7.85;6.78;;;17.40;48.50;;;;;;4969471;28;94986;-66
2022/03/16 02:59:44;;;;;;;7.80;6.82;;;17.40;48.50;;;;;;4970688;28;92488;-66
2022/03/16 03:02:10;;;;;;;7.60;6.68;;;17.40;48.50;;;;;;4970169;28;93945;-66
2022/03/16 03:04:37;;;;;;;7.97;6.82;;;17.30;48.40;;;;;;4970886;28;93133;-66
2022/03/16 03:07:04;;;;;;;8.00;7.20;;;17.30;48.40;;;;;;4970970;28;92941;-66
2022/03/16 03:09:29;;;;;;;9.50;7.38;;;17.30;48.40;;;;;;4969431;28;92864;-66
2022/03/16 03:11:59;;;;;;;7.82;7.03;;;17.30;48.50;;;;;;4970434;28;95349;-67
2022/03/16 03:14:27;;;;;;;8.13;7.03;;;17.30;48.50;;;;;;4971201;28;93926;-66
2022/03/16 03:16:53;;;;;;;9.25;7.25;;;17.30;48.40;;;;;;4971008;28;92559;-66
2022/03/16 03:19:20;;;;;;;9.25;7.60;;;17.30;48.40;;;;;;4969459;28;93874;-66
2022/03/16 03:21:46;;;;;;;7.78;6.97;;;17.30;48.40;;;;;;4968473;28;96564;-66
2022/03/16 03:24:12;;;;;;;8.98;7.10;;;17.30;48.50;;;;;;4970249;28;94974;-66
2022/03/16 03:26:38;;;;;;;9.50;6.95;;;17.30;48.50;;;;;;4952430;28;92938;-66
2022/03/16 03:29:04;;;;;;;7.75;6.97;;;17.30;48.40;;;;;;4970147;28;92926;-66
2022/03/16 03:31:30;;;;;;;9.75;7.22;;;17.30;48.40;;;;;;4970872;28;93373;-67
2022/03/16 03:33:56;;;;;;;9.07;7.72;;;17.30;48.40;;;;;;4969867;28;92658;-67
2022/03/16 03:36:21;;;;;;;9.07;7.40;;;17.30;48.50;;;;;;4970372;28;92983;-66
2022/03/16 03:38:48;;;;;;;8.55;7.57;;;17.30;48.40;;;;;;4970715;28;92342;-66
2022/03/16 03:41:13;;;;;;;9.70;7.85;;;17.30;48.40;;;;;;4970276;28;93218;-67
2022/03/16 03:43:39;;;;;;;8.75;7.15;;;17.20;48.30;;;;;;4969494;28;93329;-66
2022/03/16 03:46:04;;;;;;;8.70;7.75;;;17.20;48.30;;;;;;4969169;28;94832;-66
2022/03/16 03:48:30;;;;;;;8.20;7.38;;;17.20;48.30;;;;;;4970593;28;92715;-66
2022/03/16 03:50:56;;;;;;;8.20;7.40;;;17.20;48.30;;;;;;4970281;28;93127;-66
2022/03/16 03:53:21;;;;;;;9.00;7.55;;;17.20;48.30;;;;;;4969551;28;93446;-68
2022/03/16 03:55:47;;;;;;;8.32;7.53;;;17.20;48.30;;;;;;4968963;28;93016;-65
2022/03/16 03:58:13;;;;;;;9.93;7.75;;;17.20;48.30;;;;;;4970503;28;92512;-69
2022/03/16 04:00:38;;;;;;;9.43;8.45;;;17.20;48.30;;;;;;4968421;28;93067;-66
2022/03/16 04:03:04;;;;;;;8.45;7.20;;;17.20;48.30;;;;;;4969979;28;92859;-66
2022/03/16 04:05:29;;;;;;;10.85;7.63;;;17.20;48.30;;;;;;4968925;28;93090;-66
2022/03/16 04:07:55;;;;;;;9.15;8.10;;;17.20;48.30;;;;;;4969979;28;92507;-66
2022/03/16 04:10:21;;;;;;;9.35;7.68;;;17.20;48.30;;;;;;4967456;28;105360;-66
2022/03/16 04:12:46;;;;;;;8.93;7.68;;;17.20;48.20;;;;;;4969552;28;95330;-66
2022/03/16 04:15:12;;;;;;;8.65;7.40;;;17.20;48.30;;;;;;4969840;28;92995;-66
2022/03/16 04:17:38;;;;;;;8.98;8.02;;;17.10;48.20;;;;;;4969876;28;92527;-66
2022/03/16 04:20:05;;;;;;;9.13;8.23;;;17.10;48.10;;;;;;4969387;28;94032;-68
2022/03/16 04:22:31;;;;;;;9.05;7.93;;;17.20;48.20;;;;;;4971073;28;93366;-66
2022/03/16 04:24:56;;;;;;;9.05;7.95;;;17.10;48.10;;;;;;4974028;28;93021;-66
2022/03/16 04:27:22;;;;;;;8.80;7.90;;;17.10;48.20;;;;;;4973393;28;91813;-66
2022/03/16 04:29:48;;;;;;;9.93;8.43;;;17.10;48.20;;;;;;4973341;28;93097;-66
2022/03/16 04:32:14;;;;;;;8.98;8.07;;;17.10;48.20;;;;;;4973163;28;93863;-66
2022/03/16 04:34:40;;;;;;;8.93;8.02;;;17.10;48.20;;;;;;4972650;28;96040;-65
2022/03/16 04:37:05;;;;;;;10.20;8.50;;;17.10;48.10;;;;;;4973446;28;92973;-66
2022/03/16 04:39:31;;;;;;;10.77;9.10;;;17.10;48.20;;;;;;4973215;28;100519;-66
2022/03/16 04:41:57;;;;;;;9.82;8.52;;;17.10;49.20;;;;;;4973039;28;93095;-67
2022/03/16 04:44:23;;;;;;;9.40;8.40;;;17.10;48.10;;;;;;4973157;28;92827;-66
2022/03/16 04:46:48;;;;;;;10.13;8.52;;;17.10;48.10;;;;;;4974107;28;92937;-66
2022/03/16 04:49:14;;;;;;;10.13;8.85;;;17.10;48.10;;;;;;4972966;28;93222;-67
2022/03/16 04:51:40;;;;;;;10.05;9.02;;;17.10;48.20;;;;;;4974112;28;92869;-68
2022/03/16 04:54:07;;;;;;;10.80;9.20;;;17.10;48.10;;;;;;4973073;28;92924;-67
2022/03/16 04:56:35;;;;;;;9.75;8.73;;;17.10;48.10;;;;;;4972001;28;92583;-67
2022/03/16 04:59:03;;;;;;;9.45;8.43;;;17.10;48.20;;;;;;4971296;28;97523;-65
2022/03/16 05:01:30;;;;;;;9.77;8.73;;;17.00;48.10;;;;;;4972686;28;96573;-68
2022/03/16 05:03:56;;;;;;;10.90;9.32;;;17.10;48.20;;;;;;4973062;28;92913;-67
2022/03/16 05:06:21;;;;;;;10.95;9.00;;;17.00;48.10;;;;;;4971633;28;92948;-66
2022/03/16 05:08:47;;;;;;;10.43;8.68;;;17.00;48.10;;;;;;4972936;28;93083;-66
2022/03/16 05:11:14;;;;;;;9.90;8.90;;;17.00;48.10;;;;;;4971519;28;93875;-67
2022/03/16 05:13:39;;;;;;;9.80;8.80;;;17.00;48.10;;;;;;4973269;28;92945;-66
2022/03/16 06:20:03;;;;;;;10.57;9.40;;;17.40;47.20;;;;;;4697560;22;98846;-70
2022/03/16 06:22:28;;;;;;;10.68;9.45;;;17.50;46.90;;;;;;4970987;28;94985;-70
2022/03/16 06:24:54;;;;;;;10.10;9.10;;;17.70;46.80;;;;;;4972853;28;92531;-70
2022/03/16 06:27:19;;;;;;;9.57;8.48;;;17.70;46.50;;;;;;4970924;28;106256;-70
2022/03/16 06:29:45;;;;;;;10.10;9.07;;;17.80;46.40;;;;;;4972517;28;94780;-70
2022/03/16 06:32:11;;;;;;;10.73;8.93;;;17.90;46.30;;;;;;4972972;28;92977;-70
2022/03/16 06:34:36;;;;;;;9.25;8.25;;;18.00;46.20;;;;;;4972016;28;92861;-70
2022/03/16 06:37:02;;;;;;;9.20;8.30;;;18.00;46.00;;;;;;4970528;28;95052;-71
2022/03/16 06:39:28;;;;;;;9.98;8.35;;;18.00;45.80;;;;;;4971131;28;93835;-70
2022/03/16 06:41:53;;;;;;;9.02;8.13;;;18.10;45.80;;;;;;4970786;28;92683;-70
2022/03/16 06:44:20;;;;;;;8.90;8.00;;;18.20;45.70;;;;;;4969642;28;94473;-69
2022/03/16 06:46:47;;;;;;;9.50;8.50;;;18.20;45.70;;;;;;4968820;28;102071;-69
2022/03/16 06:49:12;;;;;;;8.57;7.55;;;18.10;45.70;;;;;;4970941;28;96334;-70
2022/03/16 06:51:38;;;;;;;8.63;7.72;;;18.20;45.70;;;;;;4970476;28;92535;-69
2022/03/16 06:54:04;;;;;;;8.90;8.00;;;18.20;45.60;;;;;;4970551;28;98084;-70
2022/03/16 06:56:29;;;;;;;9.20;8.20;;;18.20;45.60;;;;;;4970348;28;103010;-70
2022/03/16 06:58:55;;;;;;;9.40;8.40;;;18.20;45.70;;;;;;4971060;28;92882;-69
2022/03/16 07:01:20;;;;;;;9.25;8.25;;;18.10;45.70;;;;;;4970265;28;102141;-69
2022/03/16 07:03:46;;;;;;;8.45;7.28;;;18.10;45.70;;;;;;4971463;28;92216;-70
2022/03/16 07:06:13;;;;;;;8.73;7.72;;;18.10;45.80;;;;;;4970229;28;110517;-69
2022/03/16 07:08:38;;;;;;;9.10;7.82;;;18.10;45.80;;;;;;4970000;28;93306;-69
2022/03/16 07:11:04;;;;;;;9.35;7.57;;;18.10;45.90;;;;;;4969179;28;95304;-72
2022/03/16 07:13:30;;;;;;;8.73;7.82;;;18.00;45.80;;;;;;4971233;28;92657;-70
2022/03/16 07:15:55;;;;;;;9.07;8.10;;;18.00;45.90;;;;;;4970240;28;94462;-69
2022/03/16 07:18:23;;;;;;;9.82;8.13;;;18.00;46.00;;;;;;4970599;28;95159;-72
2022/03/16 07:20:49;;;;;;;9.25;7.95;;;18.00;46.00;;;;;;4970293;28;93026;-69
2022/03/16 07:23:19;;;;;;;9.10;8.20;;;18.00;46.00;;;;;;4970364;28;92932;-70
2022/03/16 07:25:47;;;;;;;10.57;8.60;;;18.00;46.10;;;;;;4967997;28;100206;-69
2022/03/16 07:28:13;;;;;;;14.27;9.15;;;17.90;46.20;;;;;;4966978;28;99986;-68
2022/03/16 07:30:39;;;;;;;10.98;8.73;;;17.90;46.20;;;;;;4967308;28;99239;-69
2022/03/16 07:33:06;;;;;;;10.98;7.88;;;17.90;46.40;;;;;;4967602;28;99979;-69
2022/03/16 07:35:32;;;;;;;9.18;8.25;;;17.90;46.50;;;;;;4967211;28;99926;-69
2022/03/16 07:38:02;;;;;;;10.73;8.35;;;17.90;46.60;;;;;;4967617;28;101291;-69
2022/03/16 07:40:30;;;;;;;11.55;8.73;;;17.90;46.70;;;;;;4967879;28;98623;-69
2022/03/16 07:42:56;;;;;;;9.90;8.25;;;17.80;46.80;;;;;;4967765;28;98871;-68
2022/03/16 07:45:22;;;;;;;9.90;8.13;;;17.80;46.80;;;;;;4967487;28;100376;-69
2022/03/16 07:47:52;;;;;;;10.93;8.77;;;17.80;46.90;;;;;;4967119;28;99259;-69
2022/03/16 07:50:19;;;;;;;10.88;8.75;;;17.80;47.00;;;;;;4967950;28;98774;-69
2022/03/16 07:52:46;;;;;;;11.60;9.23;;;17.80;47.10;;;;;;4968648;28;98052;-69
2022/03/16 07:55:14;;;;;;;11.55;8.68;;;17.80;47.30;;;;;;4967898;28;100134;-69
2022/03/16 07:57:41;;;;;;;10.95;8.98;;;17.70;47.30;;;;;;4970346;28;100111;-69
2022/03/16 08:00:10;;;;;;;12.65;9.35;;;17.70;47.40;;;;;;4970741;28;99752;-68
2022/03/16 08:02:36;;;;;;;13.48;9.80;;;17.70;47.50;;;;;;4975631;28;98921;-69
2022/03/16 08:05:02;;;;;;;13.15;9.88;;;17.70;47.60;;;;;;4976511;28;99643;-69
2022/03/16 08:07:30;;;;;;;11.23;8.98;;;17.70;47.70;;;;;;4975890;28;101734;-69
2022/03/16 08:09:57;;;;;;;11.05;9.80;;;17.70;47.70;;;;;;4973071;28;98737;-69
2022/03/16 08:12:23;;;;;;;12.63;9.07;;;17.70;47.80;;;;;;4971762;28;99031;-70
2022/03/16 08:14:50;;;;;;;11.18;9.98;;;17.60;47.80;;;;;;4970155;28;99118;-68
2022/03/16 08:17:16;;;;;;;11.50;10.23;;;17.60;48.00;;;;;;4970288;28;100719;-69
2022/03/16 08:19:41;;;;;;;11.20;10.00;;;17.60;48.00;;;;;;4969265;28;99180;-69
2022/03/16 08:22:07;;;;;;;10.93;9.82;;;17.60;48.00;;;;;;4969516;28;98737;-69
2022/03/16 08:24:33;;;;;;;11.95;10.02;;;17.60;48.10;;;;;;4970018;28;99979;-69
2022/03/16 08:26:58;;;;;;;12.52;10.00;;;17.60;48.20;;;;;;4969860;28;99572;-69
2022/03/16 08:29:24;;;;;;;13.63;9.98;;;17.50;48.10;;;;;;4970415;28;99269;-70
2022/03/16 08:31:49;;;;;;;13.20;9.68;;;17.60;48.20;;;;;;4971140;28;98569;-68
2022/03/16 08:34:15;;;;;;;13.00;10.27;;;17.60;48.30;;;;;;4970985;28;100650;-68
2022/03/16 08:36:41;;;;;;;10.73;9.35;;;17.50;48.30;;;;;;4970694;28;99118;-69
2022/03/16 08:39:06;;;;;;;11.30;9.50;;;17.50;48.40;;;;;;4970755;28;99032;-68
2022/03/16 08:41:33;;;;;;;13.40;10.52;;;17.50;48.40;;;;;;4971091;28;97920;-69
2022/03/16 08:43:59;;;;;;;10.35;9.25;;;17.50;48.40;;;;;;4969336;28;101011;-69
2022/03/16 08:46:25;;;;;;;11.60;10.10;;;17.50;48.50;;;;;;4970295;28;98808;-69
2022/03/16 08:48:50;;;;;;;11.95;9.27;;;17.50;48.60;;;;;;4969790;28;99379;-69
2022/03/16 08:51:16;;;;;;;12.07;9.55;;;17.50;48.70;;;;;;4971079;28;98544;-70
2022/03/16 08:53:41;;;;;;;13.35;9.77;;;17.50;48.60;;;;;;4969630;28;100778;-69
2022/03/16 08:56:09;;;;;;;10.95;9.45;;;17.50;48.70;;;;;;4970576;28;98748;-69
2022/03/16 08:58:35;;;;;;;11.07;9.23;;;17.50;48.80;;;;;;4970629;28;98671;-69
2022/03/16 09:01:00;;;;;;;12.23;9.30;;;17.50;48.70;;;;;;4970314;28;98532;-68
2022/03/16 09:03:26;;;;;;;10.20;8.68;;;17.50;48.80;;;;;;4969467;28;99125;-71
2022/03/16 09:05:52;;;;;;;11.10;8.80;;;17.50;48.80;;;;;;4969455;28;100220;-70
2022/03/16 09:08:21;;;;;;;11.05;8.73;;;17.50;48.80;;;;;;4968696;28;98576;-70
2022/03/16 09:10:48;;;;;;;12.63;8.77;;;17.50;48.80;;;;;;4969721;28;98762;-69
2022/03/16 09:13:17;;;;;;;9.85;8.38;;;17.50;48.80;;;;;;4967767;28;100776;-70
2022/03/16 09:15:44;;;;;;;9.45;7.88;;;17.50;48.90;;;;;;4969096;28;100648;-69
2022/03/16 09:18:10;;;;;;;10.70;7.80;;;17.50;48.90;;;;;;4969056;28;98817;-69
2022/03/16 09:20:37;;;;;;;10.05;7.95;;;17.50;49.00;;;;;;4970123;28;99135;-69
2022/03/16 09:23:03;;;;;;;9.57;8.00;;;17.50;49.00;;;;;;4969030;28;100871;-69
2022/03/16 09:25:28;;;;;;;10.95;8.48;;;17.50;49.00;;;;;;4968785;28;99168;-69
2022/03/16 09:27:54;;;;;;;11.00;7.97;;;17.50;49.10;;;;;;4968988;28;99990;-67
2022/03/16 09:30:21;;;;;;;9.57;8.48;;;17.60;49.10;;;;;;4970545;28;97830;-68
2022/03/16 09:32:46;;;;;;;11.23;7.95;;;17.50;49.00;;;;;;4969358;28;100318;-68
2022/03/16 09:35:12;;;;;;;8.70;7.53;;;17.50;49.00;;;;;;4969083;28;98794;-69
2022/03/16 09:37:37;;;;;;;9.30;7.63;;;17.50;49.10;;;;;;4970003;28;99230;-71
2022/03/16 09:40:04;;;;;;;8.07;7.20;;;17.50;49.10;;;;;;4971609;28;98591;-68
2022/03/16 09:42:31;;;;;;;11.15;7.47;;;17.60;49.20;;;;;;4970221;28;99266;-69
2022/03/16 09:45:01;;;;;;;10.95;7.60;;;17.60;49.20;;;;;;4970393;28;100402;-69
2022/03/16 09:47:29;;;;;;;8.48;7.28;;;17.60;49.20;;;;;;4970435;28;98970;-69
2022/03/16 09:49:55;;;;;;;10.07;7.68;;;17.60;49.20;;;;;;4971387;28;98722;-69
2022/03/16 09:52:23;;;;;;;9.00;6.90;;;17.60;49.20;;;;;;4970335;28;100901;-69
2022/03/16 09:54:49;;;;;;;8.63;6.93;;;17.60;49.20;;;;;;4969576;28;99518;-69
2022/03/16 09:57:14;;;;;;;9.32;6.90;;;17.60;49.20;;;;;;4969031;28;98994;-69
2022/03/16 09:59:40;;;;;;;9.63;7.10;;;17.70;49.30;;;;;;4967637;28;99485;-69
2022/03/16 10:02:12;;;;;;;7.65;6.40;;;17.70;49.40;;;;;;4950726;28;101828;-70
2022/03/16 10:04:38;;;;;;;8.00;6.55;;;17.70;49.40;;;;;;4968956;28;99542;-69
2022/03/16 10:07:05;;;;;;;8.45;6.43;;;17.70;49.40;;;;;;4968448;28;98669;-69
2022/03/16 10:15:11;;;;;;;8.40;6.30;;;17.70;49.40;;;;;;4967598;28;98691;-69
2022/03/16 10:17:44;;;;;;;8.30;6.07;;;17.70;49.40;;;;;;4968693;28;98618;-69
2022/03/16 10:20:33;;;;;;;8.65;6.13;;;17.70;49.40;;;;;;4960731;28;97998;-69
2022/03/16 10:23:07;;;;;;;8.10;5.85;;;17.80;49.40;;;;;;4969001;28;100291;-69
2022/03/16 10:25:36;;;;;;;8.00;6.18;;;17.80;49.40;;;;;;4967664;28;99111;-69
2022/03/16 10:28:11;;;;;;;10.25;6.72;;;17.80;49.50;;;;;;4968723;28;99414;-67
2022/03/16 10:30:57;;;;;;;7.80;5.85;;;17.80;49.50;;;;;;4968699;28;98589;-70
2022/03/16 10:33:47;;;;;;;8.18;5.78;;;17.80;49.50;;;;;;4968954;28;99443;-69
2022/03/16 10:36:16;;;;;;;8.13;5.93;;;17.90;49.60;;;;;;4969292;28;99869;-69
2022/03/16 10:38:44;;;;;;;8.30;5.50;;;17.90;49.50;;;;;;4969417;28;98686;-69
2022/03/16 10:46:34;;;;;;;7.25;5.47;;;17.90;49.50;;;;;;4968635;28;99175;-69
2022/03/16 10:46:46;;;;;;;5.90;5.00;;;17.90;49.50;;;;;;4970418;28;98518;-69
2022/03/16 10:49:16;;;;;;;6.72;5.20;;;18.00;49.60;;;;;;4969127;28;99014;-69
2022/03/16 10:51:45;;;;;;;7.10;5.07;;;18.00;49.60;;;;;;4969198;28;98936;-69
2022/03/16 10:54:16;;;;;;;7.50;5.55;;;17.90;49.50;;;;;;4967977;28;100081;-69
2022/03/16 10:56:42;;;;;;;7.38;5.20;;;18.00;49.60;;;;;;4967306;28;101010;-69
2022/03/16 10:59:08;;;;;;;8.05;5.20;;;18.00;49.50;;;;;;4968006;28;98895;-68
2022/03/16 11:01:38;;;;;;;8.50;5.28;;;18.00;49.50;;;;;;4968240;28;98479;-70
2022/03/16 11:04:04;;;;;;;7.20;4.55;;;18.00;49.40;;;;;;4965803;28;100969;-69
2022/03/16 11:06:31;;;;;;;7.15;4.93;;;18.00;49.40;;;;;;4967668;28;100729;-69
2022/03/16 11:08:59;;;;;;;6.45;4.72;;;18.00;49.40;;;;;;4968162;28;99008;-69
2022/03/16 11:14:12;;;;;;;5.15;4.45;;;18.00;49.40;;;;;;4966132;28;99077;-69
2022/03/16 11:16:40;;;;;;;5.55;4.40;;;18.00;49.40;;;;;;4966015;28;100445;-69
2022/03/16 11:19:06;;;;;;;7.53;4.82;;;18.00;49.50;;;;;;4966622;28;100533;-69
2022/03/16 11:22:01;;;;;;;6.03;4.10;;;18.10;50.10;;;;;;4967575;28;98651;-69
2022/03/16 11:24:32;;;;;;;5.68;4.43;;;18.10;50.40;;;;;;4966802;28;100644;-68
2022/03/16 11:27:28;;;;;;;7.45;4.60;;;18.10;50.20;;;;;;4968828;28;99779;-70
2022/03/16 11:30:29;;;;;;;5.72;4.47;;;18.10;50.10;;;;;;4972466;28;99174;-68
2022/03/16 11:33:00;;;;;;;6.53;4.55;;;18.10;50.00;;;;;;4970757;28;98544;-69
2022/03/16 11:35:35;;;;;;;6.47;4.47;;;18.10;50.00;;;;;;4968221;28;100267;-69
2022/03/16 11:38:02;;;;;;;6.85;4.03;;;18.10;50.00;;;;;;4967429;28;99445;-69
2022/03/16 11:40:30;;;;;;;6.70;3.53;;;18.10;50.00;;;;;;4968184;28;99098;-68
2022/03/16 11:43:04;;;;;;;6.13;4.40;;;18.10;49.90;;;;;;4967439;28;98913;-69
2022/03/16 11:45:46;;;;;;;5.65;4.07;;;18.10;49.90;;;;;;4966936;28;99236;-68
2022/03/16 11:48:33;;;;;;;5.03;3.60;;;18.10;49.90;;;;;;4966815;28;100658;-69
2022/03/16 11:51:23;;;;;;;4.72;3.90;;;18.10;49.80;;;;;;4967821;28;98938;-70
2022/03/16 11:53:58;;;;;;;5.53;3.83;;;18.20;49.90;;;;;;4967525;28;98641;-70
2022/03/16 11:56:35;;;;;;;5.20;3.60;;;18.10;50.40;;;;;;4966171;28;100614;-73
2022/03/16 11:59:09;;;;;;;11.80;4.15;;;18.20;50.60;;;;;;4966993;28;101112;-69
2022/03/16 12:01:38;;;;;;;5.90;3.55;;;18.20;50.60;;;;;;4968038;28;98950;-69
2022/03/16 12:04:12;;;;;;;4.55;3.50;;;18.20;50.70;;;;;;4968182;28;98291;-70
2022/03/16 12:06:53;;;;;;;4.93;3.80;;;18.30;50.80;;;;;;4967073;28;100107;-70
2022/03/16 12:09:34;;;;;;;5.75;3.50;;;18.30;50.90;;;;;;4966468;28;98995;-68
2022/03/16 12:15:17;;;;;;;6.05;3.25;;;18.40;51.00;;;;;;4967416;28;99906;-68
2022/03/16 12:17:55;;;;;;;4.10;3.28;;;18.30;50.80;;;;;;4966166;28;100785;-71
2022/03/16 12:20:42;;;;;;;3.70;3.08;;;18.40;50.90;;;;;;4966089;28;99461;-71
2022/03/16 12:23:43;;;;;;;8.93;3.75;;;18.30;51.10;;;;;;4967186;28;98594;-71
2022/03/16 12:26:09;;;;;;;4.55;3.28;;;18.40;51.10;;;;;;4967453;28;99096;-71
2022/03/16 12:31:19;;;;;;;5.25;3.42;;;18.40;51.10;;;;;;4966804;28;98407;-71
2022/03/16 12:33:52;;;;;;;5.15;3.50;;;18.40;51.10;;;;;;4968044;28;99043;-70
2022/03/16 12:36:35;;;;;;;4.35;2.88;;;18.40;51.10;;;;;;4967303;28;98510;-70
2022/03/16 12:39:13;;;;;;;6.07;3.00;;;18.40;51.00;;;;;;4966391;28;100396;-69
2022/03/16 12:44:42;;;;;;;3.78;3.08;;;18.30;51.10;;;;;;4915139;28;99318;-69
2022/03/16 12:47:30;;;;;;;5.18;3.33;;;18.30;51.20;;;;;;4970043;28;99195;-69
2022/03/16 12:49:56;;;;;;;4.30;3.00;;;18.30;51.10;;;;;;4970857;28;100204;-70
2022/03/16 12:52:21;;;;;;;3.20;2.83;;;18.30;51.20;;;;;;4970331;28;99188;-71
2022/03/16 12:54:47;;;;;;;4.07;2.95;;;18.30;51.30;;;;;;4970126;28;99093;-69
2022/03/16 12:57:15;;;;;;;3.33;2.75;;;18.30;51.20;;;;;;4970711;28;97875;-69
2022/03/16 12:59:49;;;;;;;4.05;3.03;;;18.30;51.20;;;;;;4970385;28;100296;-69
2022/03/16 13:02:19;;;;;;;4.63;2.95;;;18.30;51.10;;;;;;4969011;28;100127;-68
2022/03/16 13:04:51;;;;;;;4.47;3.15;;;18.30;51.10;;;;;;4968996;28;99770;-68
2022/03/16 13:07:19;;;;;;;4.15;2.92;;;18.30;51.20;;;;;;4969942;28;99969;-69
2022/03/16 13:09:45;;;;;;;3.70;2.80;;;18.30;51.30;;;;;;4968344;28;99724;-69
2022/03/16 13:12:14;;;;;;;4.30;3.17;;;18.30;51.40;;;;;;4969961;28;100211;-69
2022/03/16 13:14:44;;;;;;;4.97;3.00;;;18.30;51.60;;;;;;4973243;28;98625;-68
2022/03/16 13:17:13;;;;;;;4.18;3.08;;;18.30;51.70;;;;;;4960173;28;98725;-71
2022/03/16 13:19:40;;;;;;;4.43;3.10;;;18.20;51.70;;;;;;4980275;28;101220;-69
2022/03/16 13:22:07;;;;;;;3.60;3.00;;;18.20;51.70;;;;;;4973214;28;98880;-68
2022/03/16 13:24:40;;;;;;;4.53;2.90;;;18.20;51.80;;;;;;4952385;28;99595;-68
2022/03/16 13:27:10;;;;;;;3.97;2.80;;;18.20;51.80;;;;;;4969969;28;99389;-68
2022/03/16 13:29:39;;;;;;;4.05;3.05;;;18.20;51.80;;;;;;4970243;28;101059;-67
2022/03/16 13:32:06;;;;;;;3.00;2.70;;;18.20;51.90;;;;;;4969716;28;100905;-68
2022/03/16 13:34:40;;;;;;;3.63;3.13;;;18.10;51.80;;;;;;4969650;28;99255;-70
2022/03/16 13:37:21;;;;;;;4.82;3.10;;;18.10;51.80;;;;;;4969682;28;98613;-67
2022/03/16 13:40:06;;;;;;;3.80;2.80;;;18.10;51.80;;;;;;4968586;28;100228;-68
2022/03/16 13:42:34;;;;;;;5.72;3.03;;;18.10;52.00;;;;;;4969840;28;100838;-69
2022/03/16 13:45:23;;;;;;;3.97;2.90;;;18.10;52.00;;;;;;4969559;28;98573;-68
2022/03/16 13:48:14;;;;;;;3.22;2.70;;;18.10;51.80;;;;;;4968269;28;98347;-70
2022/03/16 13:50:44;;;;;;;3.50;2.78;;;18.10;51.80;;;;;;4969084;28;100623;-69
2022/03/16 13:53:21;;;;;;;3.53;2.60;;;18.10;51.80;;;;;;4967478;28;103205;-69
2022/03/16 13:55:53;;;;;;;4.10;2.80;;;18.10;51.70;;;;;;4968622;28;100021;-68
2022/03/16 13:58:25;;;;;;;3.63;2.95;;;18.10;51.80;;;;;;4969328;28;98537;-69
2022/03/16 14:00:55;;;;;;;4.55;2.90;;;18.00;51.80;;;;;;4967452;28;100149;-70
2022/03/16 14:03:26;;;;;;;3.85;2.80;;;18.00;51.80;;;;;;4968499;28;100274;-68
2022/03/16 14:05:53;;;;;;;3.40;2.58;;;18.00;51.80;;;;;;4969064;28;99086;-68
2022/03/16 14:08:19;;;;;;;5.35;2.97;;;18.00;51.80;;;;;;4968730;28;98597;-69
2022/03/16 14:10:47;;;;;;;4.07;2.90;;;18.00;51.80;;;;;;4969266;28;100394;-69
2022/03/16 14:13:14;;;;;;;3.40;2.80;;;18.00;51.80;;;;;;4969147;28;99795;-68